createdAt,value
2023-05-01T00:00:24.893Z,100374.78
2023-05-01T00:02:52.325Z,100373.84
2023-05-01T00:05:18.879Z,100377.13
2023-05-01T00:07:45.503Z,100373.63
2023-05-01T00:10:12.298Z,100369.97
2023-05-01T00:12:38.826Z,100373.22
2023-05-01T00:15:06.848Z,100374.94
2023-05-01T00:17:33.543Z,100382.16
2023-05-01T00:20:00.102Z,100380.38
2023-05-01T00:22:45.063Z,100369.88
2023-05-01T00:25:37.358Z,100379.06
2023-05-01T00:28:03.988Z,100373.84
2023-05-01T00:30:30.396Z,100367.38
2023-05-01T00:32:57.100Z,100365.97
2023-05-01T00:35:23.542Z,100367.53
2023-05-01T00:37:49.917Z,100365.53
2023-05-01T00:40:16.460Z,100363.44
2023-05-01T00:42:42.933Z,100361.59
2023-05-01T00:45:10.010Z,100364.25
2023-05-01T00:47:36.694Z,100352.22
2023-05-01T00:50:03.992Z,100351.59
2023-05-01T00:52:30.638Z,100350.78
2023-05-01T00:54:57.869Z,100348.16
2023-05-01T00:57:25.566Z,100351.28
2023-05-01T00:59:52.023Z,100350.47
2023-05-01T01:02:18.368Z,100353.91
2023-05-01T01:04:46.877Z,100344.31
2023-05-01T01:07:34.877Z,100351.22
2023-05-01T01:10:05.802Z,100347.44
2023-05-01T01:12:39.585Z,100336.72
2023-05-01T01:15:24.081Z,100339.31
2023-05-01T01:18:18.002Z,100336.88
2023-05-01T01:20:55.366Z,100337.91
2023-05-01T01:23:40.365Z,100333.00
2023-05-01T01:26:32.074Z,100332.25
2023-05-01T01:29:21.836Z,100331.19
2023-05-01T01:32:26.998Z,100329.63
2023-05-01T01:35:02.435Z,100332.97
2023-05-01T01:37:43.176Z,100324.56
2023-05-01T01:40:22.677Z,100328.66
2023-05-01T01:42:59.536Z,100316.66
2023-05-01T01:45:33.247Z,100316.38
2023-05-01T01:48:01.103Z,100316.38
2023-05-01T01:50:28.479Z,100316.94
2023-05-01T01:52:58.749Z,100313.69
2023-05-01T01:55:27.748Z,100312.34
2023-05-01T01:57:54.442Z,100309.88
2023-05-01T02:00:22.008Z,100308.00
2023-05-01T02:02:49.422Z,100297.06
2023-05-01T02:05:18.315Z,100297.00
2023-05-01T02:07:47.288Z,100288.81
2023-05-01T02:10:14.935Z,100294.56
2023-05-01T02:12:44.917Z,100288.28
2023-05-01T02:15:11.661Z,100285.53
2023-05-01T02:17:39.171Z,100287.78
2023-05-01T02:20:07.965Z,100290.56
2023-05-01T02:22:34.634Z,100289.44
2023-05-01T02:25:01.952Z,100288.63
2023-05-01T02:27:31.687Z,100279.31
2023-05-01T02:29:58.801Z,100292.56
2023-05-01T02:32:26.363Z,100286.59
2023-05-01T02:34:52.990Z,100283.31
2023-05-01T02:37:20.031Z,100288.28
2023-05-01T02:39:46.610Z,100277.94
2023-05-01T02:42:15.917Z,100280.16
2023-05-01T02:44:49.142Z,100279.06
2023-05-01T02:47:18.428Z,100280.75
2023-05-01T02:49:46.966Z,100280.53
2023-05-01T02:52:17.781Z,100269.59
2023-05-01T02:54:45.437Z,100275.09
2023-05-01T02:57:12.859Z,100265.44
2023-05-01T02:59:42.505Z,100271.53
2023-05-01T03:02:09.162Z,100263.78
2023-05-01T03:04:35.782Z,100269.28
2023-05-01T03:07:02.225Z,100267.38
2023-05-01T03:09:28.786Z,100259.13
2023-05-01T03:11:55.484Z,100251.97
2023-05-01T03:14:22.267Z,100260.22
2023-05-01T03:16:49.019Z,100249.97
2023-05-01T03:19:16.667Z,100247.81
2023-05-01T03:21:43.052Z,100245.66
2023-05-01T03:24:10.153Z,100242.38
2023-05-01T03:26:36.771Z,100237.47
2023-05-01T03:29:03.880Z,100245.72
2023-05-01T03:31:30.273Z,100240.25
2023-05-01T03:33:56.687Z,100246.53
2023-05-01T03:36:23.597Z,100249.28
2023-05-01T03:38:50.141Z,100246.03
2023-05-01T03:41:16.708Z,100238.69
2023-05-01T03:43:43.188Z,100248.63
2023-05-01T03:46:10.714Z,100238.69
2023-05-01T03:48:52.982Z,100234.28
2023-05-01T03:51:19.540Z,100238.44
2023-05-01T03:53:46.017Z,100232.19
2023-05-01T03:56:12.482Z,100232.94
2023-05-01T03:58:39.105Z,100239.78
2023-05-01T04:01:05.998Z,100236.38
2023-05-01T04:03:32.588Z,100240.47
2023-05-01T04:05:59.527Z,100240.75
2023-05-01T04:08:26.019Z,100235.28
2023-05-01T04:10:52.902Z,100237.66
2023-05-01T04:13:19.542Z,100230.16
2023-05-01T04:15:48.985Z,100232.84
2023-05-01T04:18:15.903Z,100229.59
2023-05-01T04:20:42.342Z,100228.16
2023-05-01T04:23:09.574Z,100219.03
2023-05-01T04:25:36.809Z,100219.13
2023-05-01T04:28:03.357Z,100206.63
2023-05-01T04:30:31.168Z,100203.72
2023-05-01T04:33:00.493Z,100200.53
2023-05-01T04:35:28.071Z,100205.63
2023-05-01T04:37:54.849Z,100202.44
2023-05-01T04:40:21.319Z,100199.44
2023-05-01T04:42:48.277Z,100193.41
2023-05-01T04:45:14.833Z,100205.34
2023-05-01T04:47:41.481Z,100202.53
2023-05-01T04:50:08.344Z,100197.69
2023-05-01T04:52:35.954Z,100200.13
2023-05-01T04:55:03.707Z,100196.78
2023-05-01T04:57:30.161Z,100196.78
2023-05-01T04:59:56.892Z,100203.94
2023-05-01T05:02:24.004Z,100200.97
2023-05-01T05:04:51.040Z,100203.97
2023-05-01T05:07:17.841Z,100195.69
2023-05-01T05:09:44.301Z,100191.97
2023-05-01T05:12:10.954Z,100196.78
2023-05-01T05:14:37.463Z,100200.75
2023-05-01T05:17:03.959Z,100191.88
2023-05-01T05:19:30.389Z,100197.63
2023-05-01T05:21:57.946Z,100194.03
2023-05-01T05:24:24.428Z,100188.88
2023-05-01T05:26:51.185Z,100186.69
2023-05-01T05:29:17.765Z,100186.81
2023-05-01T05:31:44.189Z,100194.72
2023-05-01T05:34:11.376Z,100193.06
2023-05-01T05:36:37.889Z,100184.41
2023-05-01T05:39:04.359Z,100191.50
2023-05-01T05:41:31.104Z,100174.41
2023-05-01T05:43:57.612Z,100180.09
2023-05-01T05:46:24.647Z,100183.47
2023-05-01T05:48:51.747Z,100182.84
2023-05-01T05:51:19.344Z,100168.38
2023-05-01T05:53:45.881Z,100165.91
2023-05-01T05:56:12.814Z,100166.59
2023-05-01T05:58:39.322Z,100169.19
2023-05-01T06:01:07.079Z,100168.63
2023-05-01T06:03:34.281Z,100174.38
2023-05-01T06:06:01.306Z,100172.94
2023-05-01T06:08:27.869Z,100166.66
2023-05-01T06:10:54.485Z,100158.31
2023-05-01T06:13:20.945Z,100163.41
2023-05-01T06:15:47.531Z,100149.72
2023-05-01T06:18:14.286Z,100154.69
2023-05-01T06:20:41.033Z,100150.19
2023-05-01T06:23:09.471Z,100152.31
2023-05-01T06:25:37.211Z,100142.63
2023-05-01T06:28:04.163Z,100147.88
2023-05-01T06:30:30.892Z,100136.22
2023-05-01T06:32:57.427Z,100131.44
2023-05-01T06:35:24.467Z,100139.59
2023-05-01T06:37:50.975Z,100131.81
2023-05-01T06:40:17.528Z,100146.19
2023-05-01T06:42:44.043Z,100125.06
2023-05-01T06:45:10.656Z,100138.94
2023-05-01T06:47:37.299Z,100136.91
2023-05-01T06:50:05.673Z,100130.97
2023-05-01T06:52:32.477Z,100127.06
2023-05-01T06:54:58.906Z,100123.38
2023-05-01T06:57:25.874Z,100128.94
2023-05-01T06:59:52.450Z,100122.44
2023-05-01T07:02:18.963Z,100123.47
2023-05-01T07:04:45.808Z,100124.03
2023-05-01T07:07:12.490Z,100120.97
2023-05-01T07:09:38.935Z,100116.09
2023-05-01T07:12:06.297Z,100111.50
2023-05-01T07:14:34.773Z,100104.03
2023-05-01T07:17:02.213Z,100105.66
2023-05-01T07:19:28.884Z,100105.09
2023-05-01T07:21:55.422Z,100105.97
2023-05-01T07:24:21.893Z,100098.59
2023-05-01T07:26:48.385Z,100095.88
2023-05-01T07:29:16.399Z,100089.94
2023-05-01T07:31:43.872Z,100092.28
2023-05-01T07:34:10.556Z,100094.13
2023-05-01T07:36:37.564Z,100086.97
2023-05-01T07:39:04.329Z,100089.50
2023-05-01T07:41:31.505Z,100078.34
2023-05-01T07:44:01.179Z,100094.69
2023-05-01T07:46:28.252Z,100088.16
2023-05-01T07:48:54.928Z,100079.41
2023-05-01T07:51:21.665Z,100087.59
2023-05-01T07:53:48.731Z,100082.66
2023-05-01T07:56:15.250Z,100077.44
2023-05-01T07:58:42.621Z,100083.19
2023-05-01T08:01:09.732Z,100076.66
2023-05-01T08:03:36.600Z,100080.53
2023-05-01T08:06:03.404Z,100067.38
2023-05-01T08:08:29.927Z,100078.25
2023-05-01T08:10:56.543Z,100073.38
2023-05-01T08:13:23.279Z,100073.66
2023-05-01T08:15:50.035Z,100065.38
2023-05-01T08:18:20.503Z,100050.78
2023-05-01T08:20:48.435Z,100063.75
2023-05-01T08:23:18.550Z,100064.97
2023-05-01T08:25:50.936Z,100063.28
2023-05-01T08:28:18.311Z,100061.84
2023-05-01T08:30:44.821Z,100068.50
2023-05-01T08:33:11.443Z,100066.22
2023-05-01T08:35:38.322Z,100066.25
2023-05-01T08:38:04.866Z,100052.03
2023-05-01T08:40:38.112Z,100054.00
2023-05-01T08:43:05.027Z,100059.59
2023-05-01T08:45:37.565Z,100062.38
2023-05-01T08:48:07.765Z,100053.75
2023-05-01T08:50:36.530Z,100066.16
2023-05-01T08:53:04.221Z,100053.06
2023-05-01T08:55:32.178Z,100048.69
2023-05-01T08:57:59.853Z,100049.25
2023-05-01T09:00:29.071Z,100054.00
2023-05-01T09:02:56.290Z,100056.25
2023-05-01T09:05:22.748Z,100045.91
2023-05-01T09:07:49.463Z,100039.69
2023-05-01T09:10:18.415Z,100042.59
2023-05-01T09:12:47.601Z,100039.53
2023-05-01T09:15:14.299Z,100029.63
2023-05-01T09:17:42.433Z,100041.41
2023-05-01T09:20:09.969Z,100020.69
2023-05-01T09:22:36.857Z,100027.84
2023-05-01T09:25:04.142Z,100026.56
2023-05-01T09:27:35.422Z,100023.72
2023-05-01T09:30:02.119Z,100018.53
2023-05-01T09:32:28.858Z,100022.34
2023-05-01T09:34:56.830Z,100019.47
2023-05-01T09:37:28.556Z,100016.72
2023-05-01T09:40:27.220Z,100008.47
2023-05-01T09:42:56.475Z,100009.88
2023-05-01T09:45:23.592Z,100007.69
2023-05-01T09:47:50.488Z,100006.06
2023-05-01T09:50:34.285Z,100002.81
2023-05-01T09:53:01.959Z,99997.84
2023-05-01T09:55:28.423Z,99992.88
2023-05-01T09:57:54.862Z,100001.53
2023-05-01T10:00:22.316Z,99981.84
2023-05-01T10:02:49.959Z,99987.38
2023-05-01T10:05:17.110Z,99987.38
2023-05-01T10:08:01.059Z,99975.25
2023-05-01T10:10:28.265Z,99968.91
2023-05-01T10:12:55.227Z,99968.63
2023-05-01T10:15:26.782Z,99973.06
2023-05-01T10:17:54.589Z,99971.31
2023-05-01T10:20:22.505Z,99962.94
2023-05-01T10:22:49.848Z,99959.16
2023-05-01T10:25:17.739Z,99962.88
2023-05-01T10:27:44.413Z,99951.31
2023-05-01T10:30:11.397Z,99952.03
2023-05-01T10:32:38.777Z,99946.34
2023-05-01T10:35:14.498Z,99935.00
2023-05-01T10:37:47.538Z,99941.47
2023-05-01T10:40:39.135Z,99940.84
2023-05-01T10:43:26.152Z,99939.78
2023-05-01T10:45:53.282Z,99931.00
2023-05-01T10:48:38.588Z,99933.28
2023-05-01T10:51:27.467Z,99921.44
2023-05-01T10:54:13.392Z,99913.94
2023-05-01T10:56:43.025Z,99912.19
2023-05-01T10:59:09.723Z,99905.03
2023-05-01T11:01:40.865Z,99912.59
2023-05-01T11:04:27.910Z,99907.66
2023-05-01T11:07:08.373Z,99896.97
2023-05-01T11:09:46.934Z,99898.00
2023-05-01T11:12:14.133Z,99889.00
2023-05-01T11:15:03.628Z,99888.25
2023-05-01T11:17:42.969Z,99873.38
2023-05-01T11:20:11.095Z,99875.38
2023-05-01T11:22:42.777Z,99878.03
2023-05-01T11:25:20.648Z,99878.28
2023-05-01T11:27:52.283Z,99874.34
2023-05-01T11:30:19.046Z,99865.69
2023-05-01T11:32:48.717Z,99868.25
2023-05-01T11:35:20.876Z,99861.59
2023-05-01T11:37:48.492Z,99857.69
2023-05-01T11:40:27.032Z,99862.78
2023-05-01T11:43:07.201Z,99849.38
2023-05-01T11:45:36.620Z,99847.31
2023-05-01T11:48:04.851Z,99845.63
2023-05-01T11:50:36.316Z,99823.41
2023-05-01T11:53:04.248Z,99832.31
2023-05-01T11:55:34.495Z,99817.22
2023-05-01T11:58:01.968Z,99817.09
2023-05-01T12:00:30.120Z,99810.19
2023-05-01T12:02:58.910Z,99805.25
2023-05-01T12:05:26.815Z,99802.09
2023-05-01T12:08:23.814Z,99795.66
2023-05-01T12:10:58.889Z,99774.97
2023-05-01T12:13:26.939Z,99774.38
2023-05-01T12:15:54.736Z,99768.28
2023-05-01T12:18:21.916Z,99765.72
2023-05-01T12:20:54.284Z,99764.47
2023-05-01T12:23:31.868Z,99774.22
2023-05-01T12:25:58.581Z,99760.63
2023-05-01T12:28:27.518Z,99756.38
2023-05-01T12:30:57.813Z,99751.69
2023-05-01T12:33:24.385Z,99758.97
2023-05-01T12:35:51.418Z,99735.44
2023-05-01T12:38:19.872Z,99726.47
2023-05-01T12:40:57.651Z,99730.88
2023-05-01T12:43:32.405Z,99720.81
2023-05-01T12:45:59.843Z,99739.00
2023-05-01T12:48:26.724Z,99732.28
2023-05-01T12:50:57.002Z,99722.53
2023-05-01T12:53:26.439Z,99711.84
2023-05-01T12:55:59.478Z,99705.94
2023-05-01T12:58:36.944Z,99704.66
2023-05-01T13:01:03.513Z,99700.91
2023-05-01T13:03:30.581Z,99696.59
2023-05-01T13:05:59.401Z,99698.38
2023-05-01T13:08:36.138Z,99707.75
2023-05-01T13:11:13.622Z,99704.78
2023-05-01T13:13:40.841Z,99703.31
2023-05-01T13:16:12.841Z,99692.00
2023-05-01T13:18:51.356Z,99690.06
2023-05-01T13:21:22.364Z,99688.69
2023-05-01T13:23:59.774Z,99690.53
2023-05-01T13:26:31.386Z,99689.81
2023-05-01T13:28:58.719Z,99689.69
2023-05-01T13:31:25.703Z,99689.75
2023-05-01T13:33:54.228Z,99682.88
2023-05-01T13:36:26.311Z,99671.56
2023-05-01T13:38:56.269Z,99682.31
2023-05-01T13:41:25.793Z,99683.84
2023-05-01T13:43:56.419Z,99684.97
2023-05-01T13:46:23.920Z,99686.69
2023-05-01T13:48:50.772Z,99676.00
2023-05-01T13:51:22.798Z,99673.66
2023-05-01T13:53:50.246Z,99680.28
2023-05-01T13:56:16.730Z,99663.66
2023-05-01T13:58:43.200Z,99676.38
2023-05-01T14:01:18.961Z,99664.25
2023-05-01T14:03:45.890Z,99654.13
2023-05-01T14:06:14.805Z,99654.34
2023-05-01T14:08:41.781Z,99659.34
2023-05-01T14:11:09.487Z,99657.56
2023-05-01T14:13:36.340Z,99644.59
2023-05-01T14:16:10.360Z,99640.84
2023-05-01T14:18:44.970Z,99632.97
2023-05-01T14:21:16.706Z,99637.16
2023-05-01T14:23:43.250Z,99632.19
2023-05-01T14:26:11.513Z,99621.22
2023-05-01T14:28:43.520Z,99619.69
2023-05-01T14:31:15.991Z,99612.56
2023-05-01T14:33:45.822Z,99614.59
2023-05-01T14:36:13.367Z,99606.53
2023-05-01T14:38:40.622Z,99607.41
2023-05-01T14:41:08.913Z,99610.38
2023-05-01T14:43:41.018Z,99607.75
2023-05-01T14:46:07.539Z,99605.72
2023-05-01T14:48:41.321Z,99606.69
2023-05-01T14:51:12.596Z,99604.72
2023-05-01T14:53:41.930Z,99605.72
2023-05-01T14:56:08.739Z,99604.13
2023-05-01T14:58:35.586Z,99593.41
2023-05-01T15:01:04.911Z,99600.50
2023-05-01T15:03:32.873Z,99596.00
2023-05-01T15:05:59.671Z,99616.06
2023-05-01T15:08:26.249Z,99603.81
2023-05-01T15:10:52.990Z,99610.56
2023-05-01T15:13:19.828Z,99595.31
2023-05-01T15:15:46.308Z,99603.00
2023-05-01T15:18:12.820Z,99597.72
2023-05-01T15:20:39.393Z,99597.78
2023-05-01T15:23:05.892Z,99603.09
2023-05-01T15:25:32.564Z,99601.13
2023-05-01T15:27:58.964Z,99605.13
2023-05-01T15:30:25.909Z,99597.88
2023-05-01T15:32:55.480Z,99599.69
2023-05-01T15:35:23.600Z,99596.66
2023-05-01T15:37:50.583Z,99597.03
2023-05-01T15:40:17.189Z,99584.81
2023-05-01T15:42:45.490Z,99588.59
2023-05-01T15:45:11.886Z,99585.41
2023-05-01T15:47:38.441Z,99586.47
2023-05-01T15:50:09.362Z,99588.53
2023-05-01T15:52:35.891Z,99573.22
2023-05-01T15:55:02.356Z,99578.16
2023-05-01T15:57:29.771Z,99581.88
2023-05-01T15:59:56.676Z,99575.63
2023-05-01T16:02:23.278Z,99567.88
2023-05-01T16:04:49.775Z,99576.25
2023-05-01T16:07:16.317Z,99570.97
2023-05-01T16:09:42.937Z,99573.00
2023-05-01T16:12:09.406Z,99567.72
2023-05-01T16:14:39.373Z,99571.03
2023-05-01T16:17:06.595Z,99565.03
2023-05-01T16:19:33.095Z,99559.94
2023-05-01T16:22:03.487Z,99576.91
2023-05-01T16:24:34.403Z,99564.75
2023-05-01T16:27:00.977Z,99558.34
2023-05-01T16:29:27.865Z,99560.78
2023-05-01T16:31:54.424Z,99563.66
2023-05-01T16:34:25.406Z,99567.38
2023-05-01T16:36:52.080Z,99563.28
2023-05-01T16:39:21.520Z,99563.75
2023-05-01T16:41:50.404Z,99556.19
2023-05-01T16:44:18.846Z,99564.78
2023-05-01T16:47:03.468Z,99564.03
2023-05-01T16:49:30.105Z,99554.72
2023-05-01T16:51:57.400Z,99567.34
2023-05-01T16:54:25.209Z,99567.31
2023-05-01T16:56:51.832Z,99559.97
2023-05-01T16:59:18.622Z,99559.25
2023-05-01T17:01:45.459Z,99563.75
2023-05-01T17:04:13.238Z,99561.38
2023-05-01T17:06:39.832Z,99560.69
2023-05-01T17:09:06.431Z,99562.13
2023-05-01T17:11:32.916Z,99564.56
2023-05-01T17:13:59.445Z,99558.25
2023-05-01T17:16:26.123Z,99566.34
2023-05-01T17:18:52.921Z,99553.50
2023-05-01T17:21:19.544Z,99560.72
2023-05-01T17:23:46.113Z,99567.97
2023-05-01T17:26:15.898Z,99561.63
2023-05-01T17:28:44.765Z,99561.63
2023-05-01T17:31:11.408Z,99563.63
2023-05-01T17:33:38.092Z,99561.66
2023-05-01T17:36:08.851Z,99568.94
2023-05-01T17:38:40.070Z,99560.88
2023-05-01T17:41:07.076Z,99561.75
2023-05-01T17:43:33.767Z,99563.78
2023-05-01T17:46:04.906Z,99557.81
2023-05-01T17:48:31.469Z,99559.53
2023-05-01T17:50:58.082Z,99564.75
2023-05-01T17:53:25.336Z,99554.03
2023-05-01T17:55:54.711Z,99561.31
2023-05-01T17:58:21.933Z,99556.50
2023-05-01T18:00:49.080Z,99559.75
2023-05-01T18:03:15.888Z,99559.78
2023-05-01T18:05:42.716Z,99560.19
2023-05-01T18:08:10.911Z,99569.50
2023-05-01T18:10:41.233Z,99558.25
2023-05-01T18:13:07.844Z,99563.09
2023-05-01T18:15:34.647Z,99560.28
2023-05-01T18:18:01.651Z,99564.81
2023-05-01T18:20:29.396Z,99555.16
2023-05-01T18:22:56.308Z,99554.41
2023-05-01T18:25:23.153Z,99559.25
2023-05-01T18:27:49.714Z,99559.31
2023-05-01T18:30:19.044Z,99559.34
2023-05-01T18:32:49.269Z,99569.41
2023-05-01T18:35:17.285Z,99560.59
2023-05-01T18:37:44.349Z,99566.25
2023-05-01T18:40:11.591Z,99569.88
2023-05-01T18:42:41.063Z,99563.06
2023-05-01T18:45:08.345Z,99569.88
2023-05-01T18:47:34.829Z,99565.88
2023-05-01T18:50:01.843Z,99574.31
2023-05-01T18:52:29.829Z,99562.66
2023-05-01T18:54:56.387Z,99570.66
2023-05-01T18:57:22.939Z,99571.91
2023-05-01T18:59:49.781Z,99569.09
2023-05-01T19:02:16.539Z,99571.50
2023-05-01T19:04:56.619Z,99570.28
2023-05-01T19:07:28.192Z,99568.28
2023-05-01T19:09:55.791Z,99577.09
2023-05-01T19:12:22.991Z,99580.31
2023-05-01T19:14:49.475Z,99579.50
2023-05-01T19:17:15.921Z,99578.31
2023-05-01T19:19:42.865Z,99573.88
2023-05-01T19:22:09.322Z,99580.31
2023-05-01T19:24:36.276Z,99584.34
2023-05-01T19:27:03.813Z,99582.72
2023-05-01T19:29:31.748Z,99585.94
2023-05-01T19:32:03.397Z,99577.13
2023-05-01T19:34:30.052Z,99579.53
2023-05-01T19:36:56.832Z,99577.13
2023-05-01T19:39:23.913Z,99593.56
2023-05-01T19:41:50.696Z,99589.16
2023-05-01T19:44:17.507Z,99589.97
2023-05-01T19:46:44.372Z,99584.34
2023-05-01T19:49:10.926Z,99590.38
2023-05-01T19:51:37.391Z,99594.38
2023-05-01T19:54:04.761Z,99588.75
2023-05-01T19:56:31.673Z,99590.78
2023-05-01T19:58:58.550Z,99590.78
2023-05-01T20:01:25.164Z,99585.97
2023-05-01T20:03:51.718Z,99585.16
2023-05-01T20:06:18.195Z,99587.56
2023-05-01T20:08:44.658Z,99590.78
2023-05-01T20:11:11.289Z,99583.56
2023-05-01T20:13:37.787Z,99597.19
2023-05-01T20:16:04.526Z,99599.19
2023-05-01T20:18:31.095Z,99599.56
2023-05-01T20:20:57.899Z,99602.75
2023-05-01T20:23:24.794Z,99611.16
2023-05-01T20:25:55.008Z,99607.56
2023-05-01T20:28:22.074Z,99616.34
2023-05-01T20:30:48.770Z,99615.53
2023-05-01T20:33:17.065Z,99616.63
2023-05-01T20:35:43.805Z,99616.59
2023-05-01T20:38:10.233Z,99614.97
2023-05-01T20:40:40.738Z,99623.00
2023-05-01T20:43:07.311Z,99629.78
2023-05-01T20:45:33.886Z,99641.66
2023-05-01T20:48:00.825Z,99658.03
2023-05-01T20:50:27.702Z,99660.00
2023-05-01T20:52:55.131Z,99676.59
2023-05-01T20:55:22.846Z,99681.31
2023-05-01T20:57:49.344Z,99670.06
2023-05-01T21:00:15.887Z,99670.38
2023-05-01T21:02:42.662Z,99673.53
2023-05-01T21:05:10.261Z,99679.50
2023-05-01T21:07:38.072Z,99673.47
2023-05-01T21:10:10.120Z,99676.63
2023-05-01T21:12:37.347Z,99680.16
2023-05-01T21:15:04.317Z,99692.91
2023-05-01T21:17:35.911Z,99694.47
2023-05-01T21:20:05.599Z,99704.44
2023-05-01T21:22:32.094Z,99697.59
2023-05-01T21:25:00.238Z,99707.56
2023-05-01T21:27:27.315Z,99699.13
2023-05-01T21:29:59.131Z,99701.41
2023-05-01T21:32:33.730Z,99698.63
2023-05-01T21:35:00.681Z,99700.53
2023-05-01T21:37:27.682Z,99704.50
2023-05-01T21:39:54.242Z,99705.31
2023-05-01T21:42:21.040Z,99703.75
2023-05-01T21:44:47.472Z,99693.78
2023-05-01T21:47:15.457Z,99701.78
2023-05-01T21:49:41.963Z,99691.03
2023-05-01T21:52:08.833Z,99689.09
2023-05-01T21:54:38.518Z,99698.69
2023-05-01T21:57:07.564Z,99694.69
2023-05-01T21:59:36.379Z,99698.69
2023-05-01T22:02:12.167Z,99701.41
2023-05-01T22:04:38.750Z,99703.03
2023-05-01T22:07:05.826Z,99702.94
2023-05-01T22:09:33.311Z,99702.13
2023-05-01T22:11:59.731Z,99714.13
2023-05-01T22:14:33.626Z,99714.09
2023-05-01T22:17:06.585Z,99711.75
2023-05-01T22:19:33.068Z,99712.16
2023-05-01T22:21:59.563Z,99711.59
2023-05-01T22:24:26.056Z,99722.25
2023-05-01T22:26:52.564Z,99716.66
2023-05-01T22:29:19.010Z,99708.22
2023-05-01T22:31:46.537Z,99712.19
2023-05-01T22:34:13.321Z,99716.22
2023-05-01T22:36:39.768Z,99712.22
2023-05-01T22:39:06.306Z,99718.59
2023-05-01T22:41:33.186Z,99723.34
2023-05-01T22:44:00.842Z,99726.81
2023-05-01T22:46:28.933Z,99724.00
2023-05-01T22:48:55.535Z,99728.75
2023-05-01T22:51:22.145Z,99721.16
2023-05-01T22:53:48.533Z,99719.25
2023-05-01T22:56:15.259Z,99721.72
2023-05-01T22:58:42.677Z,99717.78
2023-05-01T23:01:09.260Z,99715.00
2023-05-01T23:03:38.635Z,99717.41
2023-05-01T23:06:06.421Z,99728.94
2023-05-01T23:08:34.051Z,99732.16
2023-05-01T23:11:00.546Z,99743.16
2023-05-01T23:13:28.215Z,99744.28
2023-05-01T23:15:54.745Z,99749.09
2023-05-01T23:18:30.665Z,99751.75
2023-05-01T23:20:57.418Z,99754.13
2023-05-01T23:23:29.379Z,99755.91
2023-05-01T23:25:56.569Z,99755.84
2023-05-01T23:28:25.022Z,99752.56
2023-05-01T23:31:18.673Z,99751.88
2023-05-01T23:33:45.341Z,99747.03
2023-05-01T23:36:13.021Z,99743.88
2023-05-01T23:38:40.364Z,99750.25
2023-05-01T23:41:07.950Z,99750.38
2023-05-01T23:43:38.606Z,99745.09
2023-05-01T23:46:06.576Z,99746.97
2023-05-01T23:48:36.292Z,99744.88
2023-05-01T23:51:02.950Z,99741.69
2023-05-01T23:53:29.575Z,99732.16
2023-05-01T23:55:56.353Z,99741.97
2023-05-01T23:58:23.460Z,99730.50
